Time;durP1;ratioP1;P1;durP2;ratioP2;P2;SDS_P1;SDS_P2;PMS_P1;PMS_P2;Temp;Humidity;BMP_temperature;BMP_pressure;BME280_temperature;BME280_humidity;BME280_pressure;Samples;Min_cycle;Max_cycle;Signal;HPM_P1;HPM_P2
2023/05/21 00:00:19;;;;;;;19.80;9.88;;;;;;;;;;5066469;28;20056;-75
2023/05/21 00:02:50;;;;;;;18.15;10.45;;;;;;;;;;5068159;28;20743;-74
2023/05/21 00:05:22;;;;;;;16.13;10.38;;;;;;;;;;5065677;28;20053;-74
2023/05/21 00:07:53;;;;;;;17.67;10.20;;;;;;;;;;5067727;28;20052;-74
2023/05/21 00:10:26;;;;;;;17.95;11.23;;;;;;;;;;5067799;28;20060;-74
2023/05/21 00:12:57;;;;;;;19.40;12.20;;;;;;;;;;5068143;28;20048;-75
2023/05/21 00:15:28;;;;;;;23.55;13.07;;;;;;;;;;5066932;28;20059;-74
2023/05/21 00:17:57;;;;;;;26.02;15.23;;;;;;;;;;5066506;28;20060;-75
2023/05/21 00:20:31;;;;;;;23.30;15.45;;;;;;;;;;5067434;28;20428;-75
2023/05/21 00:23:02;;;;;;;25.50;14.55;;;;;;;;;;5067814;28;20384;-74
2023/05/21 00:25:33;;;;;;;26.02;16.70;;;;;;;;;;5067714;28;20445;-75
2023/05/21 00:28:03;;;;;;;21.08;14.77;;;;;;;;;;5066314;28;20053;-74
2023/05/21 00:30:34;;;;;;;15.27;10.38;;;;;;;;;;5065495;28;20059;-74
2023/05/21 00:33:04;;;;;;;18.10;10.57;;;;;;;;;;5065297;28;20067;-77
2023/05/21 00:35:35;;;;;;;16.65;10.73;;;;;;;;;;5067371;28;20052;-74
2023/05/21 00:38:07;;;;;;;23.88;10.15;;;;;;;;;;5067505;28;20051;-75
2023/05/21 00:40:40;;;;;;;19.40;11.13;;;;;;;;;;5066722;28;20170;-74
2023/05/21 00:43:18;;;;;;;18.50;9.07;;;;;;;;;;5065781;28;20048;-75
2023/05/21 00:45:48;;;;;;;20.70;10.85;;;;;;;;;;5064995;28;20053;-75
2023/05/21 00:48:20;;;;;;;17.77;10.23;;;;;;;;;;5067266;28;20578;-75
2023/05/21 00:50:51;;;;;;;18.40;9.35;;;;;;;;;;5065103;28;20538;-75
2023/05/21 00:53:21;;;;;;;14.02;9.60;;;;;;;;;;5065592;28;20052;-73
2023/05/21 00:55:52;;;;;;;15.05;8.73;;;;;;;;;;5065696;28;20051;-73
2023/05/21 00:58:24;;;;;;;13.23;8.70;;;;;;;;;;5067084;28;20506;-74
2023/05/21 01:00:55;;;;;;;16.95;9.93;;;;;;;;;;5065284;28;20048;-74
2023/05/21 01:03:25;;;;;;;16.30;9.98;;;;;;;;;;5067218;28;20048;-75
2023/05/21 01:05:58;;;;;;;17.50;10.00;;;;;;;;;;5064522;28;20542;-75
2023/05/21 01:08:29;;;;;;;16.60;10.55;;;;;;;;;;5065766;28;20051;-74
2023/05/21 01:11:02;;;;;;;18.77;10.60;;;;;;;;;;5066489;28;20052;-74
2023/05/21 01:13:36;;;;;;;15.50;8.85;;;;;;;;;;5066886;28;20416;-74
2023/05/21 01:16:09;;;;;;;14.23;10.32;;;;;;;;;;5064710;28;20416;-75
2023/05/21 01:18:42;;;;;;;17.08;10.68;;;;;;;;;;5066673;28;20045;-74
2023/05/21 01:21:16;;;;;;;15.35;9.82;;;;;;;;;;5066196;28;20044;-75
2023/05/21 01:23:46;;;;;;;22.52;9.15;;;;;;;;;;5064693;28;20052;-75
2023/05/21 01:26:17;;;;;;;13.20;9.23;;;;;;;;;;5066362;28;20063;-75
2023/05/21 01:28:48;;;;;;;16.73;8.70;;;;;;;;;;5065902;28;20427;-74
2023/05/21 01:32:02;;;;;;;18.58;9.93;;;;;;;;;;5065916;28;20052;-75
2023/05/21 01:34:44;;;;;;;12.30;7.55;;;;;;;;;;5064180;28;20515;-75
2023/05/21 01:37:26;;;;;;;11.73;7.90;;;;;;;;;;5066631;28;20045;-75
2023/05/21 01:40:10;;;;;;;16.75;9.70;;;;;;;;;;5062938;28;20048;-74
2023/05/21 01:42:44;;;;;;;14.93;9.60;;;;;;;;;;5063907;28;20526;-74
2023/05/21 01:45:16;;;;;;;13.95;8.88;;;;;;;;;;5065999;28;20521;-75
2023/05/21 01:47:51;;;;;;;12.88;10.00;;;;;;;;;;5065969;28;20045;-75
2023/05/21 01:50:25;;;;;;;15.75;9.48;;;;;;;;;;5064136;28;20067;-75
2023/05/21 01:52:57;;;;;;;14.25;10.30;;;;;;;;;;5064461;28;20052;-75
2023/05/21 01:55:29;;;;;;;13.38;9.95;;;;;;;;;;5063960;28;20052;-75
2023/05/21 01:58:00;;;;;;;12.10;9.23;;;;;;;;;;5064439;28;20048;-74
2023/05/21 02:00:33;;;;;;;13.48;10.38;;;;;;;;;;5062827;28;20048;-75
2023/05/21 02:03:04;;;;;;;15.73;10.65;;;;;;;;;;5063933;28;20048;-76
2023/05/21 02:05:35;;;;;;;16.90;10.52;;;;;;;;;;5063652;28;20059;-75
2023/05/21 02:08:10;;;;;;;17.13;10.18;;;;;;;;;;5063358;28;20059;-75
2023/05/21 02:10:41;;;;;;;17.92;10.02;;;;;;;;;;5065976;28;20044;-75
2023/05/21 02:13:11;;;;;;;19.10;9.38;;;;;;;;;;5064603;28;20044;-75
2023/05/21 02:15:43;;;;;;;20.40;11.88;;;;;;;;;;5063075;28;20049;-75
2023/05/21 02:18:17;;;;;;;21.70;11.38;;;;;;;;;;5063236;28;20787;-75
2023/05/21 02:20:51;;;;;;;20.77;12.35;;;;;;;;;;5065338;28;20053;-74
2023/05/21 02:23:22;;;;;;;24.75;12.25;;;;;;;;;;5065210;28;20048;-74
2023/05/21 02:25:51;;;;;;;16.02;9.93;;;;;;;;;;5065255;28;20056;-75
2023/05/21 02:28:22;;;;;;;20.25;12.05;;;;;;;;;;5065156;28;20052;-74
2023/05/21 02:30:53;;;;;;;14.00;9.25;;;;;;;;;;5063770;28;20602;-74
2023/05/21 02:33:25;;;;;;;13.48;9.25;;;;;;;;;;5065317;28;20052;-75
2023/05/21 02:35:56;;;;;;;16.73;10.32;;;;;;;;;;5064939;28;20059;-74
2023/05/21 02:38:27;;;;;;;16.13;9.70;;;;;;;;;;5064785;28;20056;-74
2023/05/21 02:40:57;;;;;;;20.00;10.35;;;;;;;;;;5064989;28;20411;-75
2023/05/21 02:43:28;;;;;;;17.65;11.77;;;;;;;;;;5063615;28;20056;-75
2023/05/21 02:46:00;;;;;;;16.80;10.23;;;;;;;;;;5063055;28;20059;-74
2023/05/21 02:48:32;;;;;;;15.48;10.65;;;;;;;;;;5063379;28;20052;-74
2023/05/21 02:51:02;;;;;;;13.10;9.95;;;;;;;;;;5063466;28;20416;-74
2023/05/21 02:53:32;;;;;;;18.27;12.07;;;;;;;;;;5062779;28;20059;-74
2023/05/21 02:56:03;;;;;;;17.02;10.82;;;;;;;;;;5064968;28;20060;-75
2023/05/21 02:58:33;;;;;;;16.02;10.13;;;;;;;;;;5065127;28;20045;-74
2023/05/21 03:01:03;;;;;;;18.08;10.18;;;;;;;;;;5064651;28;20044;-74
2023/05/21 03:03:34;;;;;;;22.13;10.55;;;;;;;;;;5062957;28;20049;-76
2023/05/21 03:06:05;;;;;;;16.15;10.60;;;;;;;;;;5062790;28;20419;-75
2023/05/21 03:08:36;;;;;;;16.42;11.50;;;;;;;;;;5062819;28;20079;-74
2023/05/21 03:11:06;;;;;;;16.45;10.88;;;;;;;;;;5064607;28;20056;-75
2023/05/21 03:13:37;;;;;;;20.48;11.38;;;;;;;;;;5064355;28;20044;-74
2023/05/21 03:16:07;;;;;;;17.58;11.93;;;;;;;;;;5064858;28;20048;-75
2023/05/21 03:18:38;;;;;;;16.88;10.18;;;;;;;;;;5063503;28;20113;-75
2023/05/21 03:21:08;;;;;;;16.50;9.82;;;;;;;;;;5062715;28;20044;-74
2023/05/21 03:23:40;;;;;;;17.85;12.45;;;;;;;;;;5064563;28;20053;-74
2023/05/21 03:26:12;;;;;;;15.20;10.50;;;;;;;;;;5062577;28;20075;-75
2023/05/21 03:28:43;;;;;;;19.50;12.43;;;;;;;;;;5062844;28;20053;-75
2023/05/21 03:31:14;;;;;;;19.50;13.18;;;;;;;;;;5066515;28;20044;-74
2023/05/21 03:33:54;;;;;;;18.42;11.30;;;;;;;;;;5066720;28;20063;-74
2023/05/21 03:36:28;;;;;;;20.80;12.13;;;;;;;;;;5068186;28;20048;-74
2023/05/21 03:38:59;;;;;;;14.02;10.57;;;;;;;;;;5066851;28;20052;-74
2023/05/21 03:41:32;;;;;;;15.27;10.93;;;;;;;;;;5067059;28;20590;-74
2023/05/21 03:44:12;;;;;;;17.02;10.32;;;;;;;;;;5066700;28;20060;-75
2023/05/21 03:46:55;;;;;;;20.23;10.40;;;;;;;;;;5066633;28;20055;-74
2023/05/21 03:49:28;;;;;;;15.60;11.82;;;;;;;;;;5066490;28;20060;-76
2023/05/21 03:51:59;;;;;;;23.88;13.15;;;;;;;;;;5066178;28;20052;-74
2023/05/21 03:54:30;;;;;;;17.70;10.48;;;;;;;;;;5067709;28;20049;-75
2023/05/21 03:57:05;;;;;;;15.00;10.68;;;;;;;;;;5066511;28;20057;-75
2023/05/21 03:59:36;;;;;;;16.70;11.88;;;;;;;;;;5065416;28;20056;-75
2023/05/21 04:02:06;;;;;;;18.83;11.77;;;;;;;;;;5066728;28;20431;-74
2023/05/21 04:04:37;;;;;;;17.27;10.25;;;;;;;;;;5065981;28;20064;-74
2023/05/21 04:07:13;;;;;;;17.98;10.15;;;;;;;;;;5049810;28;20055;-76
2023/05/21 04:09:43;;;;;;;17.13;10.90;;;;;;;;;;5067729;28;20044;-75
2023/05/21 04:12:16;;;;;;;18.67;10.73;;;;;;;;;;5066170;28;20055;-75
2023/05/21 04:14:47;;;;;;;18.48;11.35;;;;;;;;;;5066012;28;20048;-75
2023/05/21 04:17:19;;;;;;;12.77;10.15;;;;;;;;;;5065675;28;20053;-75
2023/05/21 04:19:51;;;;;;;19.38;11.40;;;;;;;;;;5065804;28;20056;-74
2023/05/21 04:22:25;;;;;;;14.02;9.57;;;;;;;;;;5067120;28;20054;-74
2023/05/21 04:24:58;;;;;;;17.90;11.02;;;;;;;;;;5065613;28;20048;-76
2023/05/21 04:27:33;;;;;;;19.90;10.82;;;;;;;;;;5065465;28;20060;-74
2023/05/21 04:30:04;;;;;;;13.10;9.35;;;;;;;;;;5065464;28;20048;-74
2023/05/21 04:32:37;;;;;;;18.90;9.18;;;;;;;;;;5065076;28;20048;-74
2023/05/21 04:35:09;;;;;;;18.35;10.10;;;;;;;;;;5067674;28;20044;-75
2023/05/21 04:37:40;;;;;;;19.33;11.98;;;;;;;;;;5065542;28;20057;-74
2023/05/21 04:40:17;;;;;;;16.08;10.20;;;;;;;;;;5065057;28;20083;-74
2023/05/21 04:42:49;;;;;;;19.02;12.05;;;;;;;;;;5065730;28;20045;-74
2023/05/21 04:45:23;;;;;;;18.42;11.70;;;;;;;;;;5064972;28;20056;-75
2023/05/21 04:47:59;;;;;;;17.95;11.45;;;;;;;;;;5065896;28;20059;-75
2023/05/21 04:50:30;;;;;;;16.38;12.05;;;;;;;;;;5065169;28;20059;-74
2023/05/21 04:53:02;;;;;;;17.27;12.27;;;;;;;;;;5066936;28;20420;-75
2023/05/21 04:55:38;;;;;;;18.80;11.77;;;;;;;;;;5066834;28;20051;-74
2023/05/21 04:58:12;;;;;;;16.63;11.75;;;;;;;;;;5065883;28;20048;-74
2023/05/21 05:00:44;;;;;;;16.48;10.10;;;;;;;;;;5066592;28;20420;-75
2023/05/21 05:03:16;;;;;;;15.90;11.65;;;;;;;;;;5065247;28;20780;-75
2023/05/21 05:05:47;;;;;;;16.85;10.88;;;;;;;;;;5065094;28;20052;-75
2023/05/21 05:08:18;;;;;;;20.25;11.25;;;;;;;;;;5063967;28;20053;-74
2023/05/21 05:10:48;;;;;;;19.73;10.98;;;;;;;;;;5065248;28;20446;-75
2023/05/21 05:13:18;;;;;;;18.20;11.55;;;;;;;;;;5067049;28;20522;-74
2023/05/21 05:15:51;;;;;;;17.10;10.90;;;;;;;;;;5048483;28;20049;-74
2023/05/21 05:18:23;;;;;;;18.02;9.32;;;;;;;;;;5066270;28;20044;-74
2023/05/21 05:20:54;;;;;;;21.67;11.15;;;;;;;;;;5064246;28;20044;-75
2023/05/21 05:23:25;;;;;;;16.90;11.68;;;;;;;;;;5066578;28;20048;-74
2023/05/21 05:25:55;;;;;;;16.50;10.80;;;;;;;;;;5064590;28;20052;-75
2023/05/21 05:28:28;;;;;;;15.85;10.40;;;;;;;;;;5063355;28;20419;-74
2023/05/21 05:30:59;;;;;;;19.02;12.43;;;;;;;;;;5064538;28;20052;-74
2023/05/21 05:33:30;;;;;;;17.55;10.57;;;;;;;;;;5063440;28;20052;-75
2023/05/21 05:36:01;;;;;;;19.73;11.15;;;;;;;;;;5066035;28;20044;-74
2023/05/21 05:38:34;;;;;;;16.20;10.65;;;;;;;;;;5063639;28;20060;-75
2023/05/21 05:41:04;;;;;;;15.57;10.82;;;;;;;;;;5064074;28;20131;-74
2023/05/21 05:43:34;;;;;;;15.38;12.38;;;;;;;;;;5063953;28;20056;-74
2023/05/21 05:46:05;;;;;;;20.58;12.27;;;;;;;;;;5064118;28;20048;-74
2023/05/21 05:48:37;;;;;;;25.67;12.50;;;;;;;;;;5064442;28;20526;-74
2023/05/21 05:51:10;;;;;;;17.90;12.13;;;;;;;;;;5064387;28;20420;-74
2023/05/21 05:53:40;;;;;;;18.45;11.32;;;;;;;;;;5065097;28;20052;-75
2023/05/21 05:56:11;;;;;;;16.65;11.45;;;;;;;;;;5064035;28;20060;-74
2023/05/21 05:58:43;;;;;;;16.75;12.63;;;;;;;;;;5064039;28;20048;-74
2023/05/21 06:01:16;;;;;;;17.92;11.95;;;;;;;;;;5063719;28;20059;-75
2023/05/21 06:03:46;;;;;;;18.83;11.70;;;;;;;;;;5064044;28;20537;-75
2023/05/21 06:06:18;;;;;;;18.88;11.85;;;;;;;;;;5064331;28;20049;-75
2023/05/21 06:08:52;;;;;;;17.60;12.35;;;;;;;;;;5064500;28;20053;-74
2023/05/21 06:11:22;;;;;;;16.90;12.07;;;;;;;;;;5064246;28;20052;-74
2023/05/21 06:13:52;;;;;;;17.55;12.82;;;;;;;;;;5065292;28;20048;-74
2023/05/21 06:16:22;;;;;;;16.98;12.13;;;;;;;;;;5064127;28;20053;-74
2023/05/21 06:18:53;;;;;;;15.25;11.07;;;;;;;;;;5063410;28;20052;-74
2023/05/21 06:21:31;;;;;;;18.17;11.38;;;;;;;;;;5065930;28;20055;-74
2023/05/21 06:24:02;;;;;;;21.25;12.80;;;;;;;;;;5063552;28;20056;-74
2023/05/21 06:26:33;;;;;;;16.55;11.05;;;;;;;;;;5063285;28;20059;-74
2023/05/21 06:29:04;;;;;;;24.90;13.65;;;;;;;;;;5063073;28;20063;-74
2023/05/21 06:31:36;;;;;;;20.83;15.05;;;;;;;;;;5062973;28;20056;-74
2023/05/21 06:34:07;;;;;;;21.27;15.00;;;;;;;;;;5063488;28;20041;-74
2023/05/21 06:36:38;;;;;;;24.75;15.60;;;;;;;;;;5065178;28;20053;-75
2023/05/21 06:39:08;;;;;;;24.63;14.73;;;;;;;;;;5065001;28;20052;-74
2023/05/21 06:41:39;;;;;;;20.38;12.43;;;;;;;;;;5063583;28;20052;-74
2023/05/21 06:44:28;;;;;;;22.65;12.40;;;;;;;;;;5069906;28;20060;-74
2023/05/21 06:47:23;;;;;;;20.10;12.88;;;;;;;;;;5063427;28;20550;-75
2023/05/21 06:49:53;;;;;;;27.33;13.32;;;;;;;;;;5063523;28;20044;-73
2023/05/21 06:52:26;;;;;;;17.30;12.00;;;;;;;;;;5062954;28;20056;-74
2023/05/21 06:54:57;;;;;;;19.23;12.18;;;;;;;;;;5063176;28;20048;-74
2023/05/21 06:57:30;;;;;;;15.45;11.25;;;;;;;;;;5063310;28;20052;-74
2023/05/21 07:00:01;;;;;;;18.90;13.68;;;;;;;;;;5063678;28;20059;-74
2023/05/21 07:02:34;;;;;;;18.25;11.98;;;;;;;;;;5061995;28;20048;-74
2023/05/21 07:05:05;;;;;;;21.80;12.43;;;;;;;;;;5063104;28;20053;-74
2023/05/21 07:07:36;;;;;;;24.55;12.68;;;;;;;;;;5067254;28;20515;-74
2023/05/21 07:10:07;;;;;;;21.45;13.70;;;;;;;;;;5067159;28;20053;-73
2023/05/21 07:12:40;;;;;;;16.67;12.88;;;;;;;;;;5067654;28;20067;-75
2023/05/21 07:15:12;;;;;;;21.98;10.50;;;;;;;;;;5066596;28;20056;-74
2023/05/21 07:17:49;;;;;;;19.02;11.82;;;;;;;;;;5066850;28;20079;-75
2023/05/21 07:20:20;;;;;;;20.35;13.00;;;;;;;;;;5066472;28;20427;-74
2023/05/21 07:22:53;;;;;;;20.42;13.32;;;;;;;;;;5066549;28;20067;-75
2023/05/21 07:25:24;;;;;;;17.90;12.75;;;;;;;;;;5069180;28;20059;-74
2023/05/21 07:27:54;;;;;;;18.33;11.63;;;;;;;;;;5066621;28;20053;-74
2023/05/21 07:30:24;;;;;;;15.98;11.45;;;;;;;;;;5067076;28;20052;-74
2023/05/21 07:32:55;;;;;;;22.05;13.35;;;;;;;;;;5067142;28;20412;-74
2023/05/21 07:35:26;;;;;;;18.13;13.43;;;;;;;;;;5067021;28;20049;-74
2023/05/21 07:37:57;;;;;;;25.35;13.10;;;;;;;;;;5066368;28;20455;-74
2023/05/21 07:40:28;;;;;;;15.63;11.32;;;;;;;;;;5068078;28;20048;-74
2023/05/21 07:42:59;;;;;;;22.45;13.65;;;;;;;;;;5066899;28;20053;-74
2023/05/21 07:45:31;;;;;;;23.13;14.00;;;;;;;;;;5066815;28;20056;-74
2023/05/21 07:48:03;;;;;;;18.55;11.68;;;;;;;;;;5066878;28;20055;-74
2023/05/21 07:50:36;;;;;;;19.17;11.32;;;;;;;;;;5066005;28;20052;-74
2023/05/21 07:53:06;;;;;;;18.85;13.23;;;;;;;;;;5066129;28;20048;-74
2023/05/21 07:55:36;;;;;;;19.23;12.57;;;;;;;;;;5067999;28;20036;-74
2023/05/21 07:58:06;;;;;;;20.35;13.23;;;;;;;;;;5068063;28;20508;-74
2023/05/21 08:00:43;;;;;;;18.60;12.73;;;;;;;;;;5066274;28;20055;-74
2023/05/21 08:03:17;;;;;;;20.65;13.00;;;;;;;;;;5066154;28;20056;-74
2023/05/21 08:05:48;;;;;;;22.75;12.25;;;;;;;;;;5066041;28;20044;-74
2023/05/21 08:08:19;;;;;;;18.48;11.27;;;;;;;;;;5065916;28;20053;-74
2023/05/21 08:10:51;;;;;;;21.15;11.85;;;;;;;;;;5065737;28;20083;-74
2023/05/21 08:13:24;;;;;;;17.27;12.70;;;;;;;;;;5065785;28;20061;-74
2023/05/21 08:15:54;;;;;;;17.05;12.23;;;;;;;;;;5065758;28;20063;-74
2023/05/21 08:18:27;;;;;;;24.02;11.27;;;;;;;;;;5049890;28;20415;-75
2023/05/21 08:21:00;;;;;;;18.75;12.57;;;;;;;;;;5066768;28;20063;-75
2023/05/21 08:23:31;;;;;;;20.13;12.77;;;;;;;;;;5065560;28;20048;-75
2023/05/21 08:26:02;;;;;;;18.65;12.38;;;;;;;;;;5067229;28;20415;-75
2023/05/21 08:28:32;;;;;;;18.85;11.18;;;;;;;;;;5064900;28;20067;-75
2023/05/21 08:31:03;;;;;;;19.23;11.73;;;;;;;;;;5066287;28;20052;-75
2023/05/21 08:33:39;;;;;;;15.27;11.70;;;;;;;;;;5066405;28;20048;-75
2023/05/21 08:36:11;;;;;;;14.38;11.45;;;;;;;;;;5066154;28;20055;-75
2023/05/21 08:38:49;;;;;;;18.30;12.25;;;;;;;;;;5050024;28;20056;-74
2023/05/21 08:41:34;;;;;;;14.63;10.40;;;;;;;;;;5064753;28;20048;-75
2023/05/21 08:44:12;;;;;;;19.67;12.40;;;;;;;;;;5049962;28;20052;-75
2023/05/21 08:46:48;;;;;;;18.52;11.77;;;;;;;;;;5067722;28;20044;-74
2023/05/21 08:49:25;;;;;;;15.80;11.38;;;;;;;;;;5066983;28;20063;-74
2023/05/21 08:51:58;;;;;;;15.05;10.88;;;;;;;;;;5065876;28;20103;-75
2023/05/21 08:54:29;;;;;;;15.50;10.82;;;;;;;;;;5065672;28;20044;-74
2023/05/21 08:57:01;;;;;;;17.38;9.88;;;;;;;;;;5065068;28;20079;-74
2023/05/21 08:59:31;;;;;;;18.25;10.05;;;;;;;;;;5065504;28;20059;-74
2023/05/21 09:02:14;;;;;;;19.50;11.15;;;;;;;;;;5064962;28;20064;-76
2023/05/21 09:04:50;;;;;;;13.32;9.93;;;;;;;;;;5064769;28;20053;-74
2023/05/21 09:07:23;;;;;;;16.27;10.90;;;;;;;;;;5065548;28;20057;-74
2023/05/21 09:10:26;;;;;;;20.15;10.10;;;;;;;;;;5049738;28;20056;-74
2023/05/21 09:12:58;;;;;;;14.15;9.80;;;;;;;;;;5064817;28;20052;-75
2023/05/21 09:15:30;;;;;;;18.35;9.98;;;;;;;;;;5066502;28;20052;-75
2023/05/21 09:18:00;;;;;;;16.40;10.05;;;;;;;;;;5065726;28;20044;-74
2023/05/21 09:20:47;;;;;;;17.25;11.95;;;;;;;;;;5064871;28;20060;-75
2023/05/21 09:23:19;;;;;;;18.05;10.70;;;;;;;;;;5065127;28;20057;-75
2023/05/21 09:25:50;;;;;;;16.40;11.20;;;;;;;;;;5064606;28;20059;-74
2023/05/21 09:28:29;;;;;;;21.50;11.63;;;;;;;;;;5063790;28;20060;-75
2023/05/21 09:31:03;;;;;;;16.33;11.80;;;;;;;;;;5065985;28;20041;-75
2023/05/21 09:33:34;;;;;;;18.20;12.07;;;;;;;;;;5064011;28;20060;-75
2023/05/21 09:36:07;;;;;;;17.92;11.38;;;;;;;;;;5064373;28;20049;-75
2023/05/21 09:38:38;;;;;;;17.08;11.90;;;;;;;;;;5065911;28;20059;-79
2023/05/21 09:41:08;;;;;;;21.00;11.32;;;;;;;;;;5066210;28;20043;-75
2023/05/21 09:43:43;;;;;;;17.92;11.50;;;;;;;;;;5065145;28;20075;-75
2023/05/21 09:46:19;;;;;;;15.85;10.73;;;;;;;;;;5064226;28;20049;-74
2023/05/21 09:48:50;;;;;;;15.07;10.18;;;;;;;;;;5064668;28;20055;-74
2023/05/21 09:51:21;;;;;;;19.20;11.40;;;;;;;;;;5063823;28;20550;-75
2023/05/21 09:53:56;;;;;;;18.30;11.57;;;;;;;;;;5064103;28;20049;-76
2023/05/21 09:56:30;;;;;;;22.20;12.30;;;;;;;;;;5065899;28;20048;-75
2023/05/21 09:59:05;;;;;;;21.33;11.27;;;;;;;;;;5065557;28;20060;-75
2023/05/21 10:01:36;;;;;;;15.82;11.02;;;;;;;;;;5063815;28;20068;-75
2023/05/21 10:04:08;;;;;;;16.67;10.57;;;;;;;;;;5065155;28;20056;-75
2023/05/21 10:06:42;;;;;;;17.40;11.07;;;;;;;;;;5065711;28;20044;-75
2023/05/21 10:09:18;;;;;;;17.92;10.85;;;;;;;;;;5065290;28;20051;-74
2023/05/21 10:11:52;;;;;;;17.30;10.27;;;;;;;;;;5065655;28;20045;-75
2023/05/21 10:14:27;;;;;;;19.77;11.63;;;;;;;;;;5065615;28;20040;-75
2023/05/21 10:17:00;;;;;;;20.77;11.77;;;;;;;;;;5063892;28;20048;-75
2023/05/21 10:19:35;;;;;;;18.63;12.00;;;;;;;;;;5064099;28;20049;-75
2023/05/21 10:22:06;;;;;;;21.13;12.52;;;;;;;;;;5065310;28;20057;-75
2023/05/21 10:24:38;;;;;;;19.55;11.88;;;;;;;;;;5065528;28;20503;-75
2023/05/21 10:27:11;;;;;;;18.10;11.93;;;;;;;;;;5065289;28;20407;-75
2023/05/21 10:29:43;;;;;;;22.92;10.25;;;;;;;;;;5063831;28;20415;-75
2023/05/21 10:32:18;;;;;;;21.90;10.55;;;;;;;;;;5065180;28;20418;-75
2023/05/21 10:34:52;;;;;;;17.65;12.10;;;;;;;;;;5064981;28;20040;-74
2023/05/21 10:37:26;;;;;;;19.73;11.20;;;;;;;;;;5065206;28;20044;-75
2023/05/21 10:39:57;;;;;;;20.25;12.30;;;;;;;;;;5063251;28;20520;-75
2023/05/21 10:42:33;;;;;;;20.55;11.30;;;;;;;;;;5065756;28;20051;-75
2023/05/21 10:45:12;;;;;;;21.23;10.15;;;;;;;;;;5065173;28;20514;-76
2023/05/21 10:48:24;;;;;;;16.13;10.15;;;;;;;;;;5064853;28;20048;-75
2023/05/21 10:51:06;;;;;;;15.73;11.32;;;;;;;;;;5045681;28;20064;-75
2023/05/21 10:54:03;;;;;;;18.88;11.70;;;;;;;;;;5064670;28;20044;-75
2023/05/21 10:56:50;;;;;;;29.13;13.23;;;;;;;;;;5064845;28;20056;-76
2023/05/21 10:59:43;;;;;;;18.63;11.90;;;;;;;;;;5065569;28;20052;-77
2023/05/21 11:02:19;;;;;;;23.55;12.25;;;;;;;;;;5067063;28;20051;-75
2023/05/21 11:04:58;;;;;;;17.50;10.07;;;;;;;;;;5066437;28;20385;-75
2023/05/21 11:07:53;;;;;;;23.90;11.88;;;;;;;;;;5065551;28;20111;-74
2023/05/21 11:10:43;;;;;;;21.05;11.80;;;;;;;;;;5064805;28;20503;-74
2023/05/21 11:13:21;;;;;;;17.75;9.32;;;;;;;;;;5066342;28;20400;-74
2023/05/21 11:16:04;;;;;;;19.42;10.32;;;;;;;;;;5065170;28;20040;-76
2023/05/21 11:18:39;;;;;;;17.35;10.73;;;;;;;;;;5064372;28;20048;-75
2023/05/21 11:21:10;;;;;;;15.27;10.13;;;;;;;;;;5065725;28;20411;-75
2023/05/21 11:23:51;;;;;;;20.08;9.73;;;;;;;;;;5065600;28;20052;-75
2023/05/21 11:26:23;;;;;;;14.30;8.95;;;;;;;;;;5065579;28;20040;-77
2023/05/21 11:29:13;;;;;;;19.95;9.77;;;;;;;;;;5064431;28;20059;-75
2023/05/21 11:32:00;;;;;;;21.55;11.15;;;;;;;;;;5063593;28;20542;-75
2023/05/21 11:34:44;;;;;;;14.15;9.88;;;;;;;;;;5064634;28;20059;-77
2023/05/21 11:37:23;;;;;;;11.40;9.40;;;;;;;;;;5064823;28;20056;-75
2023/05/21 11:39:55;;;;;;;16.40;8.43;;;;;;;;;;5063872;28;20522;-75
2023/05/21 11:42:29;;;;;;;17.02;10.13;;;;;;;;;;5064526;28;20044;-75
2023/05/21 11:45:03;;;;;;;15.20;9.60;;;;;;;;;;5064157;28;20507;-75
2023/05/21 11:47:34;;;;;;;21.45;10.52;;;;;;;;;;5064197;28;20491;-78
2023/05/21 11:50:05;;;;;;;17.95;9.48;;;;;;;;;;5064107;28;20036;-75
2023/05/21 11:52:37;;;;;;;15.95;7.90;;;;;;;;;;5066430;28;20041;-75
2023/05/21 11:55:10;;;;;;;13.15;8.38;;;;;;;;;;5068384;28;20521;-75
2023/05/21 11:57:43;;;;;;;14.98;8.48;;;;;;;;;;5068178;28;20056;-79
2023/05/21 12:00:16;;;;;;;12.85;8.02;;;;;;;;;;5067844;28;21107;-74
2023/05/21 12:02:51;;;;;;;16.15;9.38;;;;;;;;;;5067666;28;20053;-75
2023/05/21 12:05:22;;;;;;;12.52;8.00;;;;;;;;;;5067617;28;20507;-78
2023/05/21 12:07:55;;;;;;;14.88;9.65;;;;;;;;;;5067744;28;20037;-75
2023/05/21 12:10:26;;;;;;;14.80;8.40;;;;;;;;;;5068449;28;20051;-75
2023/05/21 12:12:56;;;;;;;14.57;9.75;;;;;;;;;;5066050;28;20056;-75
2023/05/21 12:15:27;;;;;;;14.73;9.18;;;;;;;;;;5067458;28;20048;-75
2023/05/21 12:17:57;;;;;;;18.50;9.48;;;;;;;;;;5067495;28;20036;-75
2023/05/21 12:20:30;;;;;;;24.45;9.90;;;;;;;;;;5067153;28;20036;-75
2023/05/21 12:23:00;;;;;;;15.80;9.00;;;;;;;;;;5067820;28;20503;-76
2023/05/21 12:25:31;;;;;;;14.88;7.95;;;;;;;;;;5067483;28;20055;-75
2023/05/21 12:28:04;;;;;;;13.10;8.43;;;;;;;;;;5067726;28;20400;-74
2023/05/21 12:30:35;;;;;;;15.10;9.63;;;;;;;;;;5067561;28;20067;-76
2023/05/21 12:33:06;;;;;;;11.55;8.30;;;;;;;;;;5066508;28;20550;-75
2023/05/21 12:35:36;;;;;;;17.00;9.27;;;;;;;;;;5065296;28;20053;-75
2023/05/21 12:38:09;;;;;;;13.35;8.63;;;;;;;;;;5067199;28;20044;-75
2023/05/21 12:40:41;;;;;;;23.85;19.05;;;;;;;;;;5067335;28;20415;-75
2023/05/21 12:43:11;;;;;;;12.52;8.63;;;;;;;;;;5067261;28;20546;-76
2023/05/21 12:45:42;;;;;;;11.15;8.10;;;;;;;;;;5066094;28;20056;-74
2023/05/21 12:48:13;;;;;;;13.10;8.25;;;;;;;;;;5067436;28;20047;-75
2023/05/21 12:50:44;;;;;;;16.65;9.27;;;;;;;;;;5067008;28;20681;-74
2023/05/21 12:53:14;;;;;;;12.40;8.93;;;;;;;;;;5066390;28;20048;-74
2023/05/21 12:55:44;;;;;;;10.40;7.30;;;;;;;;;;5067065;28;20055;-76
2023/05/21 12:58:15;;;;;;;14.13;7.78;;;;;;;;;;5067016;28;20055;-76
2023/05/21 13:00:48;;;;;;;9.73;7.82;;;;;;;;;;5066757;28;20055;-74
2023/05/21 13:03:22;;;;;;;13.85;8.13;;;;;;;;;;5065952;28;20052;-75
2023/05/21 13:06:00;;;;;;;13.18;8.05;;;;;;;;;;5066564;28;20051;-77
2023/05/21 13:08:33;;;;;;;14.35;7.57;;;;;;;;;;5066713;28;20072;-75
2023/05/21 13:11:04;;;;;;;11.45;8.13;;;;;;;;;;5066657;28;20049;-76
2023/05/21 13:13:34;;;;;;;15.10;10.02;;;;;;;;;;5066794;28;20053;-75
2023/05/21 13:16:04;;;;;;;17.73;10.48;;;;;;;;;;5066145;28;20039;-75
2023/05/21 13:18:37;;;;;;;14.05;10.48;;;;;;;;;;5066905;28;20049;-76
2023/05/21 13:21:07;;;;;;;15.07;11.05;;;;;;;;;;5066404;28;20055;-75
2023/05/21 13:23:37;;;;;;;18.73;10.48;;;;;;;;;;5066413;28;20048;-75
2023/05/21 13:26:08;;;;;;;17.40;9.63;;;;;;;;;;5064370;28;20067;-74
2023/05/21 13:28:40;;;;;;;17.33;10.55;;;;;;;;;;5066312;28;20059;-75
2023/05/21 13:31:12;;;;;;;12.27;9.27;;;;;;;;;;5066206;28;20040;-74
2023/05/21 13:33:44;;;;;;;11.43;8.30;;;;;;;;;;5066845;28;20504;-74
2023/05/21 13:36:16;;;;;;;14.45;9.07;;;;;;;;;;5065900;28;20051;-75
2023/05/21 13:38:46;;;;;;;14.35;9.73;;;;;;;;;;5065683;28;20056;-75
2023/05/21 13:41:20;;;;;;;18.27;8.63;;;;;;;;;;5065794;28;20084;-75
2023/05/21 13:43:50;;;;;;;14.60;9.10;;;;;;;;;;5065225;28;20526;-75
2023/05/21 13:46:20;;;;;;;19.90;9.50;;;;;;;;;;5064482;28;20052;-75
2023/05/21 13:48:50;;;;;;;16.33;11.52;;;;;;;;;;5065826;28;20044;-75
2023/05/21 13:51:21;;;;;;;13.52;9.50;;;;;;;;;;5065599;28;20055;-75
2023/05/21 13:54:08;;;;;;;14.82;7.97;;;;;;;;;;5065490;28;20044;-76
2023/05/21 13:56:38;;;;;;;12.15;7.82;;;;;;;;;;5065666;28;20055;-75
2023/05/21 13:59:07;;;;;;;17.48;7.78;;;;;;;;;;5065595;28;20056;-75
2023/05/21 14:01:38;;;;;;;14.98;7.47;;;;;;;;;;5065178;28;20056;-76
2023/05/21 14:04:09;;;;;;;13.40;7.53;;;;;;;;;;5065400;28;20044;-78
2023/05/21 14:06:40;;;;;;;11.20;6.90;;;;;;;;;;5064400;28;20423;-74
2023/05/21 14:09:11;;;;;;;11.52;7.13;;;;;;;;;;5065177;28;20044;-75
2023/05/21 14:11:41;;;;;;;12.40;7.05;;;;;;;;;;5066331;28;20048;-77
2023/05/21 14:14:17;;;;;;;16.55;10.45;;;;;;;;;;5065153;28;20045;-76
2023/05/21 14:16:49;;;;;;;11.48;8.75;;;;;;;;;;5066090;28;20056;-77
2023/05/21 14:19:20;;;;;;;13.25;9.35;;;;;;;;;;5065607;28;20044;-75
2023/05/21 14:21:55;;;;;;;13.80;8.80;;;;;;;;;;5065424;28;20048;-76
2023/05/21 14:24:26;;;;;;;13.85;9.30;;;;;;;;;;5065938;28;20531;-76
2023/05/21 14:26:57;;;;;;;19.15;9.13;;;;;;;;;;5065176;28;20056;-75
2023/05/21 14:29:27;;;;;;;16.65;9.13;;;;;;;;;;5064733;28;20060;-78
2023/05/21 14:31:58;;;;;;;18.92;9.55;;;;;;;;;;5064991;28;20048;-75
2023/05/21 14:34:28;;;;;;;16.02;8.40;;;;;;;;;;5065604;28;20056;-75
2023/05/21 14:36:59;;;;;;;14.35;9.60;;;;;;;;;;5065574;28;20071;-75
2023/05/21 14:39:31;;;;;;;20.25;10.43;;;;;;;;;;5065847;28;20056;-75
2023/05/21 14:42:03;;;;;;;17.92;10.35;;;;;;;;;;5064816;28;20056;-75
2023/05/21 14:44:34;;;;;;;19.80;13.13;;;;;;;;;;5065047;28;20052;-74
2023/05/21 14:47:04;;;;;;;26.48;13.10;;;;;;;;;;5064886;28;20052;-76
2023/05/21 14:49:34;;;;;;;27.80;17.10;;;;;;;;;;5063264;28;20060;-75
2023/05/21 14:52:06;;;;;;;20.83;14.45;;;;;;;;;;5065153;28;20045;-75
2023/05/21 14:54:36;;;;;;;21.80;11.65;;;;;;;;;;5065097;28;20061;-75